Aromas, CA

11:04 AM PDT on August 29, 2014 (GMT -0700)
Aromas Heights | Change Station
CLOSE
Current Station
Personal Weather Station
Location: Aromas, CA
Elevation: 160 ft
Nearby Weather Stations

Elev 160 ft 36.89 °N, 121.65 °W | Updated 8 seconds ago

Partly Cloudy
Partly Cloudy
72.5 °F
Feels Like 75 °F
N
2.0
Wind Variable Wind from WNW
Gusts 2.0 mph

Today
High -- | Low -- °F
--% Chance of Precip.
Yesterday
High -- | Low -- °F
Precip. -- in
6:35 AM 7:39 PM
Waxing Crescent, 15% visible
Pressure 29.96 in
Visibility 10.0 miles
Clouds Clear
Heat Index 75 °F
Dew Point 61 °F
Humidity 68%
Rainfall 0.00 in
Snow Depth Not available.
UV 7 out of 12
Pollen 7.40 out of 12
Air Quality Not available.
Flu Activity Not available.
METAR KWVI 291753Z AUTO 17004KT 10SM CLR 21/14 A2996 RMK AO2 SLP143 T02060144 10211 20161 51001

More Conditions Fewer Conditions

Pressure 29.96 in
Visibility 10.0 miles
Clouds Clear
Heat Index 75 °F
Dew Point 61 °F
Humidity 68%
Rainfall 0.00 in
Snow Depth Not available.
UV 7 out of 12
Pollen 7.40 out of 12
Air Quality Not available.
Flu Activity Not available.
METAR KWVI 291753Z AUTO 17004KT 10SM CLR 21/14 A2996 RMK AO2 SLP143 T02060144 10211 20161 51001

More Conditions Fewer Conditions

10-Day Weather Forecast

Almanac

Astronomy

Aug. 29, 2014 Rise Set
Actual Time 6:35 AM PDT 7:39 PM PDT
Civil Twilight 6:08 AM PDT 8:05 PM PDT
Nautical Twilight 5:36 AM PDT 8:37 PM PDT
Astronomical Twilight 5:03 AM PDT 9:10 PM PDT
Moon 10:22 AM PDT 9:47 PM PDT
Length of Visible Light 13h 57m
Length of Day
13h 03m
Tomorrow will be 2m 14s shorter.
Waxing Crescent, 15% of the Moon is Illuminated
Today
Waxing Crescent
Sep 2
First Quarter
Sep 8
Full
Sep 15
Last Quarter
Sep 24
New

Today's Extremes

State Highs State Lows

Community

WunderPhotos

Upload Photos

1,748,307 photos uploaded!

Nearby

Snow Depth

Station Depth Elevation
Blue Lakes 0 in 8000 ft
Leavitt Meadows 0 in 7200 ft
Forestdale Creek 0 in 8029 ft
Summit Meadow 0 in 9122 ft
Echo Peak 0 in 7800 ft

Earthquake Activity

City Distance Mag. Time & Date
Napa, California 102 miles 2.6 11:57 AM PDT
2014-08-27
The Geysers, California 148 miles 2.6 7:42 AM PDT
2014-08-27
Minimum magnitude displayed is 2.5.

Coastal Water Temperatures

Place Temperature
Monterey, CA 64.9 °F
Redwood City, CA 73.0 °F

Nearby Weather Stations